sensor_id;sensor_type;location;lat;lon;timestamp;P1;durP1;ratioP1;P2;durP2;ratioP2
16101;SDS011;56411;52.964;10.540;2023-03-29T00:02:04;9.60;;;3.00;;
16101;SDS011;56411;52.964;10.540;2023-03-29T00:04:33;9.30;;;2.90;;
16101;SDS011;56411;52.964;10.540;2023-03-29T00:07:04;11.87;;;3.50;;
16101;SDS011;56411;52.964;10.540;2023-03-29T00:09:31;8.97;;;4.00;;
16101;SDS011;56411;52.964;10.540;2023-03-29T00:11:59;9.77;;;3.40;;
16101;SDS011;56411;52.964;10.540;2023-03-29T00:14:28;12.67;;;3.50;;
16101;SDS011;56411;52.964;10.540;2023-03-29T00:16:55;10.00;;;3.07;;
16101;SDS011;56411;52.964;10.540;2023-03-29T00:19:23;9.30;;;3.30;;
16101;SDS011;56411;52.964;10.540;2023-03-29T00:21:50;9.20;;;3.80;;
16101;SDS011;56411;52.964;10.540;2023-03-29T00:24:17;9.00;;;3.27;;
16101;SDS011;56411;52.964;10.540;2023-03-29T00:26:47;9.93;;;3.50;;
16101;SDS011;56411;52.964;10.540;2023-03-29T00:29:14;11.33;;;3.60;;
16101;SDS011;56411;52.964;10.540;2023-03-29T00:31:43;10.53;;;3.33;;
16101;SDS011;56411;52.964;10.540;2023-03-29T00:34:16;9.83;;;3.77;;
16101;SDS011;56411;52.964;10.540;2023-03-29T00:36:43;10.07;;;3.37;;
16101;SDS011;56411;52.964;10.540;2023-03-29T00:39:10;11.33;;;3.53;;
16101;SDS011;56411;52.964;10.540;2023-03-29T00:41:37;10.43;;;3.40;;
16101;SDS011;56411;52.964;10.540;2023-03-29T00:44:05;8.77;;;3.67;;
16101;SDS011;56411;52.964;10.540;2023-03-29T00:46:32;10.77;;;3.70;;
16101;SDS011;56411;52.964;10.540;2023-03-29T00:49:02;10.13;;;3.20;;
16101;SDS011;56411;52.964;10.540;2023-03-29T00:51:33;9.30;;;3.37;;
16101;SDS011;56411;52.964;10.540;2023-03-29T00:54:03;7.27;;;3.13;;
16101;SDS011;56411;52.964;10.540;2023-03-29T00:56:35;12.20;;;3.53;;
16101;SDS011;56411;52.964;10.540;2023-03-29T00:59:05;12.27;;;3.40;;
16101;SDS011;56411;52.964;10.540;2023-03-29T01:01:38;10.53;;;3.30;;
16101;SDS011;56411;52.964;10.540;2023-03-29T01:04:13;9.33;;;3.40;;
16101;SDS011;56411;52.964;10.540;2023-03-29T01:06:44;8.77;;;3.10;;
16101;SDS011;56411;52.964;10.540;2023-03-29T01:09:18;9.00;;;3.20;;
16101;SDS011;56411;52.964;10.540;2023-03-29T01:11:50;11.13;;;3.30;;
16101;SDS011;56411;52.964;10.540;2023-03-29T01:14:21;9.63;;;3.53;;
16101;SDS011;56411;52.964;10.540;2023-03-29T01:16:54;9.30;;;3.50;;
16101;SDS011;56411;52.964;10.540;2023-03-29T01:19:23;10.37;;;3.20;;
16101;SDS011;56411;52.964;10.540;2023-03-29T01:21:56;12.47;;;3.77;;
16101;SDS011;56411;52.964;10.540;2023-03-29T01:24:38;10.23;;;3.40;;
16101;SDS011;56411;52.964;10.540;2023-03-29T01:27:20;8.50;;;3.20;;
16101;SDS011;56411;52.964;10.540;2023-03-29T01:30:00;11.63;;;3.63;;
16101;SDS011;56411;52.964;10.540;2023-03-29T01:32:32;13.50;;;4.33;;
16101;SDS011;56411;52.964;10.540;2023-03-29T01:35:03;10.80;;;3.50;;
16101;SDS011;56411;52.964;10.540;2023-03-29T01:37:35;12.00;;;3.73;;
16101;SDS011;56411;52.964;10.540;2023-03-29T01:40:07;11.60;;;4.20;;
16101;SDS011;56411;52.964;10.540;2023-03-29T01:42:41;11.80;;;4.23;;
16101;SDS011;56411;52.964;10.540;2023-03-29T01:45:14;12.40;;;4.60;;
16101;SDS011;56411;52.964;10.540;2023-03-29T01:47:52;9.63;;;3.77;;
16101;SDS011;56411;52.964;10.540;2023-03-29T01:50:26;11.87;;;4.30;;
16101;SDS011;56411;52.964;10.540;2023-03-29T01:53:02;11.17;;;3.97;;
16101;SDS011;56411;52.964;10.540;2023-03-29T01:55:36;11.77;;;3.67;;
16101;SDS011;56411;52.964;10.540;2023-03-29T01:58:10;10.47;;;3.77;;
16101;SDS011;56411;52.964;10.540;2023-03-29T02:00:40;10.37;;;3.40;;
16101;SDS011;56411;52.964;10.540;2023-03-29T02:03:08;9.93;;;3.47;;
16101;SDS011;56411;52.964;10.540;2023-03-29T02:05:38;12.07;;;3.37;;
16101;SDS011;56411;52.964;10.540;2023-03-29T02:08:08;9.83;;;3.87;;
16101;SDS011;56411;52.964;10.540;2023-03-29T02:10:38;10.97;;;3.70;;
16101;SDS011;56411;52.964;10.540;2023-03-29T02:13:06;10.23;;;4.00;;
16101;SDS011;56411;52.964;10.540;2023-03-29T02:15:37;9.87;;;3.43;;
16101;SDS011;56411;52.964;10.540;2023-03-29T02:18:06;9.53;;;3.60;;
16101;SDS011;56411;52.964;10.540;2023-03-29T02:20:34;13.50;;;3.90;;
16101;SDS011;56411;52.964;10.540;2023-03-29T02:23:06;11.83;;;3.83;;
16101;SDS011;56411;52.964;10.540;2023-03-29T02:25:39;10.33;;;3.63;;
16101;SDS011;56411;52.964;10.540;2023-03-29T02:28:08;8.83;;;3.57;;
16101;SDS011;56411;52.964;10.540;2023-03-29T02:30:39;12.90;;;3.90;;
16101;SDS011;56411;52.964;10.540;2023-03-29T02:33:15;12.57;;;3.93;;
16101;SDS011;56411;52.964;10.540;2023-03-29T02:35:49;11.77;;;4.03;;
16101;SDS011;56411;52.964;10.540;2023-03-29T02:38:20;12.17;;;3.70;;
16101;SDS011;56411;52.964;10.540;2023-03-29T02:40:52;11.07;;;4.13;;
16101;SDS011;56411;52.964;10.540;2023-03-29T02:43:21;11.50;;;3.93;;
16101;SDS011;56411;52.964;10.540;2023-03-29T02:45:52;10.73;;;3.87;;
16101;SDS011;56411;52.964;10.540;2023-03-29T02:48:20;10.07;;;3.80;;
16101;SDS011;56411;52.964;10.540;2023-03-29T02:50:52;8.70;;;3.67;;
16101;SDS011;56411;52.964;10.540;2023-03-29T02:53:22;10.67;;;3.50;;
16101;SDS011;56411;52.964;10.540;2023-03-29T02:55:53;11.93;;;3.77;;
16101;SDS011;56411;52.964;10.540;2023-03-29T02:58:21;8.80;;;3.60;;
16101;SDS011;56411;52.964;10.540;2023-03-29T03:00:52;11.70;;;4.27;;
16101;SDS011;56411;52.964;10.540;2023-03-29T03:03:21;11.33;;;4.20;;
16101;SDS011;56411;52.964;10.540;2023-03-29T03:05:50;9.63;;;3.70;;
16101;SDS011;56411;52.964;10.540;2023-03-29T03:08:17;13.50;;;4.23;;
16101;SDS011;56411;52.964;10.540;2023-03-29T03:10:44;12.97;;;4.10;;
16101;SDS011;56411;52.964;10.540;2023-03-29T03:13:11;10.37;;;3.40;;
16101;SDS011;56411;52.964;10.540;2023-03-29T03:15:39;10.23;;;4.00;;
16101;SDS011;56411;52.964;10.540;2023-03-29T03:18:08;10.57;;;4.17;;
16101;SDS011;56411;52.964;10.540;2023-03-29T03:20:38;9.30;;;3.60;;
16101;SDS011;56411;52.964;10.540;2023-03-29T03:23:05;12.73;;;3.93;;
16101;SDS011;56411;52.964;10.540;2023-03-29T03:25:33;10.27;;;3.97;;
16101;SDS011;56411;52.964;10.540;2023-03-29T03:28:00;10.63;;;4.23;;
16101;SDS011;56411;52.964;10.540;2023-03-29T03:30:27;9.97;;;4.00;;
16101;SDS011;56411;52.964;10.540;2023-03-29T03:32:55;12.93;;;4.57;;
16101;SDS011;56411;52.964;10.540;2023-03-29T03:35:23;11.10;;;3.80;;
16101;SDS011;56411;52.964;10.540;2023-03-29T03:37:50;9.67;;;3.97;;
16101;SDS011;56411;52.964;10.540;2023-03-29T03:40:17;11.37;;;3.77;;
16101;SDS011;56411;52.964;10.540;2023-03-29T03:42:45;10.57;;;3.83;;
16101;SDS011;56411;52.964;10.540;2023-03-29T03:45:12;10.33;;;4.10;;
16101;SDS011;56411;52.964;10.540;2023-03-29T03:47:39;12.07;;;4.30;;
16101;SDS011;56411;52.964;10.540;2023-03-29T03:50:07;13.00;;;4.87;;
16101;SDS011;56411;52.964;10.540;2023-03-29T03:52:37;15.27;;;4.40;;
16101;SDS011;56411;52.964;10.540;2023-03-29T03:55:04;14.70;;;4.50;;
16101;SDS011;56411;52.964;10.540;2023-03-29T03:57:32;11.83;;;4.43;;
16101;SDS011;56411;52.964;10.540;2023-03-29T04:00:02;10.57;;;4.20;;
16101;SDS011;56411;52.964;10.540;2023-03-29T04:02:43;12.03;;;4.60;;
16101;SDS011;56411;52.964;10.540;2023-03-29T04:05:10;13.60;;;4.70;;
16101;SDS011;56411;52.964;10.540;2023-03-29T04:07:39;14.43;;;4.90;;
16101;SDS011;56411;52.964;10.540;2023-03-29T04:10:07;12.00;;;4.23;;
16101;SDS011;56411;52.964;10.540;2023-03-29T04:12:35;11.80;;;4.73;;
16101;SDS011;56411;52.964;10.540;2023-03-29T04:15:06;11.00;;;4.60;;
16101;SDS011;56411;52.964;10.540;2023-03-29T04:17:34;13.70;;;4.80;;
16101;SDS011;56411;52.964;10.540;2023-03-29T04:20:02;10.67;;;4.53;;
16101;SDS011;56411;52.964;10.540;2023-03-29T04:22:35;11.43;;;4.23;;
16101;SDS011;56411;52.964;10.540;2023-03-29T04:25:06;12.43;;;4.90;;
16101;SDS011;56411;52.964;10.540;2023-03-29T04:27:35;12.13;;;4.33;;
16101;SDS011;56411;52.964;10.540;2023-03-29T04:30:03;14.80;;;4.97;;
16101;SDS011;56411;52.964;10.540;2023-03-29T04:32:31;12.57;;;4.57;;
16101;SDS011;56411;52.964;10.540;2023-03-29T04:34:58;12.10;;;4.53;;
16101;SDS011;56411;52.964;10.540;2023-03-29T04:37:28;13.37;;;4.83;;
16101;SDS011;56411;52.964;10.540;2023-03-29T04:39:56;13.10;;;4.30;;
16101;SDS011;56411;52.964;10.540;2023-03-29T04:42:26;10.80;;;3.70;;
16101;SDS011;56411;52.964;10.540;2023-03-29T04:44:53;8.87;;;3.87;;
16101;SDS011;56411;52.964;10.540;2023-03-29T04:47:22;13.50;;;4.30;;
16101;SDS011;56411;52.964;10.540;2023-03-29T04:49:49;9.17;;;3.97;;
16101;SDS011;56411;52.964;10.540;2023-03-29T04:52:16;10.43;;;3.83;;
16101;SDS011;56411;52.964;10.540;2023-03-29T04:54:43;12.80;;;5.53;;
16101;SDS011;56411;52.964;10.540;2023-03-29T04:57:11;13.70;;;5.37;;
16101;SDS011;56411;52.964;10.540;2023-03-29T04:59:40;12.87;;;4.57;;
16101;SDS011;56411;52.964;10.540;2023-03-29T05:02:08;11.67;;;4.00;;
16101;SDS011;56411;52.964;10.540;2023-03-29T05:04:36;12.80;;;4.00;;
16101;SDS011;56411;52.964;10.540;2023-03-29T05:07:05;11.13;;;4.03;;
16101;SDS011;56411;52.964;10.540;2023-03-29T05:09:34;8.83;;;3.80;;
16101;SDS011;56411;52.964;10.540;2023-03-29T05:12:01;11.73;;;4.10;;
16101;SDS011;56411;52.964;10.540;2023-03-29T05:14:29;8.33;;;4.00;;
16101;SDS011;56411;52.964;10.540;2023-03-29T05:17:00;10.33;;;3.80;;
16101;SDS011;56411;52.964;10.540;2023-03-29T05:19:32;12.23;;;3.93;;
16101;SDS011;56411;52.964;10.540;2023-03-29T05:22:00;11.40;;;4.33;;
16101;SDS011;56411;52.964;10.540;2023-03-29T05:24:28;11.93;;;4.57;;
16101;SDS011;56411;52.964;10.540;2023-03-29T05:26:56;13.10;;;4.70;;
16101;SDS011;56411;52.964;10.540;2023-03-29T05:29:26;14.60;;;4.60;;
16101;SDS011;56411;52.964;10.540;2023-03-29T05:31:58;11.67;;;4.17;;
16101;SDS011;56411;52.964;10.540;2023-03-29T05:34:29;11.57;;;4.47;;
16101;SDS011;56411;52.964;10.540;2023-03-29T05:37:09;12.03;;;4.60;;
16101;SDS011;56411;52.964;10.540;2023-03-29T05:39:37;11.03;;;4.17;;
16101;SDS011;56411;52.964;10.540;2023-03-29T05:42:04;13.43;;;4.23;;
16101;SDS011;56411;52.964;10.540;2023-03-29T05:44:36;12.27;;;4.57;;
16101;SDS011;56411;52.964;10.540;2023-03-29T05:47:05;11.87;;;4.03;;
16101;SDS011;56411;52.964;10.540;2023-03-29T05:49:33;9.97;;;4.00;;
16101;SDS011;56411;52.964;10.540;2023-03-29T05:52:03;12.03;;;4.43;;
16101;SDS011;56411;52.964;10.540;2023-03-29T05:54:34;11.77;;;4.07;;
16101;SDS011;56411;52.964;10.540;2023-03-29T05:57:02;13.33;;;4.50;;
16101;SDS011;56411;52.964;10.540;2023-03-29T05:59:30;11.07;;;4.50;;
16101;SDS011;56411;52.964;10.540;2023-03-29T06:01:59;11.63;;;3.83;;
16101;SDS011;56411;52.964;10.540;2023-03-29T06:04:30;10.50;;;4.43;;
16101;SDS011;56411;52.964;10.540;2023-03-29T06:06:58;10.47;;;4.50;;
16101;SDS011;56411;52.964;10.540;2023-03-29T06:09:26;12.50;;;4.73;;
16101;SDS011;56411;52.964;10.540;2023-03-29T06:11:53;12.53;;;5.47;;
16101;SDS011;56411;52.964;10.540;2023-03-29T06:14:21;12.47;;;4.60;;
16101;SDS011;56411;52.964;10.540;2023-03-29T06:16:49;12.30;;;5.20;;
16101;SDS011;56411;52.964;10.540;2023-03-29T06:19:17;12.73;;;4.90;;
16101;SDS011;56411;52.964;10.540;2023-03-29T06:21:46;11.00;;;5.10;;
16101;SDS011;56411;52.964;10.540;2023-03-29T06:24:14;14.50;;;5.30;;
16101;SDS011;56411;52.964;10.540;2023-03-29T06:26:41;12.27;;;5.20;;
16101;SDS011;56411;52.964;10.540;2023-03-29T06:29:08;11.97;;;5.17;;
16101;SDS011;56411;52.964;10.540;2023-03-29T06:31:38;14.27;;;5.43;;
16101;SDS011;56411;52.964;10.540;2023-03-29T06:34:16;12.27;;;5.33;;
16101;SDS011;56411;52.964;10.540;2023-03-29T06:37:20;12.63;;;5.23;;
16101;SDS011;56411;52.964;10.540;2023-03-29T06:39:48;11.73;;;5.00;;
16101;SDS011;56411;52.964;10.540;2023-03-29T06:42:17;12.17;;;5.53;;
16101;SDS011;56411;52.964;10.540;2023-03-29T06:44:44;11.93;;;5.87;;
16101;SDS011;56411;52.964;10.540;2023-03-29T06:47:12;14.10;;;5.73;;
16101;SDS011;56411;52.964;10.540;2023-03-29T06:49:39;10.67;;;5.20;;
16101;SDS011;56411;52.964;10.540;2023-03-29T06:52:06;12.33;;;5.57;;
16101;SDS011;56411;52.964;10.540;2023-03-29T06:54:43;12.33;;;5.00;;
16101;SDS011;56411;52.964;10.540;2023-03-29T06:57:10;11.83;;;5.53;;
16101;SDS011;56411;52.964;10.540;2023-03-29T06:59:38;13.00;;;5.40;;
16101;SDS011;56411;52.964;10.540;2023-03-29T07:02:07;11.17;;;5.40;;
16101;SDS011;56411;52.964;10.540;2023-03-29T07:04:36;12.17;;;5.17;;
16101;SDS011;56411;52.964;10.540;2023-03-29T07:07:03;12.23;;;5.17;;
16101;SDS011;56411;52.964;10.540;2023-03-29T07:09:45;11.77;;;4.73;;
16101;SDS011;56411;52.964;10.540;2023-03-29T07:12:18;12.37;;;5.20;;
16101;SDS011;56411;52.964;10.540;2023-03-29T07:14:47;13.10;;;5.50;;
16101;SDS011;56411;52.964;10.540;2023-03-29T07:17:14;11.53;;;4.77;;
16101;SDS011;56411;52.964;10.540;2023-03-29T07:19:42;12.03;;;5.00;;
16101;SDS011;56411;52.964;10.540;2023-03-29T07:22:10;10.77;;;5.30;;
16101;SDS011;56411;52.964;10.540;2023-03-29T07:24:38;12.33;;;4.77;;
16101;SDS011;56411;52.964;10.540;2023-03-29T07:27:09;13.57;;;5.20;;
16101;SDS011;56411;52.964;10.540;2023-03-29T07:29:37;11.33;;;5.23;;
16101;SDS011;56411;52.964;10.540;2023-03-29T07:32:09;13.73;;;5.33;;
16101;SDS011;56411;52.964;10.540;2023-03-29T07:34:39;10.77;;;4.90;;
16101;SDS011;56411;52.964;10.540;2023-03-29T07:37:09;10.30;;;4.87;;
16101;SDS011;56411;52.964;10.540;2023-03-29T07:39:38;10.93;;;5.00;;
16101;SDS011;56411;52.964;10.540;2023-03-29T07:42:06;10.97;;;5.20;;
16101;SDS011;56411;52.964;10.540;2023-03-29T07:44:36;11.40;;;5.03;;
16101;SDS011;56411;52.964;10.540;2023-03-29T07:47:05;11.23;;;4.97;;
16101;SDS011;56411;52.964;10.540;2023-03-29T07:49:33;12.10;;;5.17;;
16101;SDS011;56411;52.964;10.540;2023-03-29T07:52:00;11.17;;;4.80;;
16101;SDS011;56411;52.964;10.540;2023-03-29T07:54:28;10.57;;;4.80;;
16101;SDS011;56411;52.964;10.540;2023-03-29T07:56:56;9.60;;;4.33;;
16101;SDS011;56411;52.964;10.540;2023-03-29T07:59:26;10.33;;;4.70;;
16101;SDS011;56411;52.964;10.540;2023-03-29T08:01:53;11.80;;;4.97;;
16101;SDS011;56411;52.964;10.540;2023-03-29T08:04:20;11.23;;;4.73;;
16101;SDS011;56411;52.964;10.540;2023-03-29T08:06:48;12.00;;;4.97;;
16101;SDS011;56411;52.964;10.540;2023-03-29T08:09:16;11.57;;;4.73;;
16101;SDS011;56411;52.964;10.540;2023-03-29T08:11:43;9.63;;;4.43;;
16101;SDS011;56411;52.964;10.540;2023-03-29T08:14:10;9.60;;;4.50;;
16101;SDS011;56411;52.964;10.540;2023-03-29T08:16:39;11.73;;;5.00;;
16101;SDS011;56411;52.964;10.540;2023-03-29T08:19:06;13.03;;;5.30;;
16101;SDS011;56411;52.964;10.540;2023-03-29T08:21:34;11.10;;;4.73;;
16101;SDS011;56411;52.964;10.540;2023-03-29T08:24:01;11.27;;;5.00;;
16101;SDS011;56411;52.964;10.540;2023-03-29T08:26:28;12.00;;;5.23;;
16101;SDS011;56411;52.964;10.540;2023-03-29T08:28:55;10.83;;;5.20;;
16101;SDS011;56411;52.964;10.540;2023-03-29T08:31:22;12.80;;;5.53;;
16101;SDS011;56411;52.964;10.540;2023-03-29T08:33:51;11.33;;;5.27;;
16101;SDS011;56411;52.964;10.540;2023-03-29T08:36:18;11.17;;;5.07;;
16101;SDS011;56411;52.964;10.540;2023-03-29T08:38:45;12.00;;;5.53;;
16101;SDS011;56411;52.964;10.540;2023-03-29T08:41:18;11.63;;;5.40;;
16101;SDS011;56411;52.964;10.540;2023-03-29T08:44:00;13.23;;;5.60;;
16101;SDS011;56411;52.964;10.540;2023-03-29T08:46:36;12.20;;;5.63;;
16101;SDS011;56411;52.964;10.540;2023-03-29T08:49:11;10.50;;;5.17;;
16101;SDS011;56411;52.964;10.540;2023-03-29T08:51:39;11.83;;;5.53;;
16101;SDS011;56411;52.964;10.540;2023-03-29T08:54:12;12.83;;;6.10;;
16101;SDS011;56411;52.964;10.540;2023-03-29T08:56:43;12.47;;;6.00;;
16101;SDS011;56411;52.964;10.540;2023-03-29T08:59:14;11.80;;;5.90;;
16101;SDS011;56411;52.964;10.540;2023-03-29T09:01:44;15.10;;;6.13;;
16101;SDS011;56411;52.964;10.540;2023-03-29T09:04:16;11.93;;;5.77;;
16101;SDS011;56411;52.964;10.540;2023-03-29T09:06:46;12.50;;;5.77;;
16101;SDS011;56411;52.964;10.540;2023-03-29T09:09:14;13.33;;;6.03;;
16101;SDS011;56411;52.964;10.540;2023-03-29T09:11:48;12.90;;;5.57;;
16101;SDS011;56411;52.964;10.540;2023-03-29T09:14:32;12.47;;;5.70;;
16101;SDS011;56411;52.964;10.540;2023-03-29T09:17:08;11.07;;;5.70;;
16101;SDS011;56411;52.964;10.540;2023-03-29T09:19:51;13.07;;;6.10;;
16101;SDS011;56411;52.964;10.540;2023-03-29T09:22:27;11.70;;;5.60;;
16101;SDS011;56411;52.964;10.540;2023-03-29T09:25:07;10.13;;;5.30;;
16101;SDS011;56411;52.964;10.540;2023-03-29T09:27:46;11.57;;;5.80;;
16101;SDS011;56411;52.964;10.540;2023-03-29T09:30:16;11.77;;;5.57;;
16101;SDS011;56411;52.964;10.540;2023-03-29T09:32:51;12.30;;;6.10;;
16101;SDS011;56411;52.964;10.540;2023-03-29T09:35:24;13.13;;;5.73;;
16101;SDS011;56411;52.964;10.540;2023-03-29T09:37:56;10.77;;;5.87;;
16101;SDS011;56411;52.964;10.540;2023-03-29T09:40:25;13.03;;;6.03;;
16101;SDS011;56411;52.964;10.540;2023-03-29T09:42:57;14.53;;;6.07;;
16101;SDS011;56411;52.964;10.540;2023-03-29T09:45:28;12.37;;;5.63;;
16101;SDS011;56411;52.964;10.540;2023-03-29T09:47:56;11.87;;;5.80;;
16101;SDS011;56411;52.964;10.540;2023-03-29T10:42:15;13.60;;;5.90;;
16101;SDS011;56411;52.964;10.540;2023-03-29T10:45:17;11.97;;;5.83;;
16101;SDS011;56411;52.964;10.540;2023-03-29T10:51:29;11.77;;;5.80;;
16101;SDS011;56411;52.964;10.540;2023-03-29T11:01:07;13.53;;;5.67;;
16101;SDS011;56411;52.964;10.540;2023-03-29T11:07:00;10.87;;;5.43;;
16101;SDS011;56411;52.964;10.540;2023-03-29T11:19:59;11.43;;;5.83;;
16101;SDS011;56411;52.964;10.540;2023-03-29T11:23:12;13.50;;;6.23;;
16101;SDS011;56411;52.964;10.540;2023-03-29T16:28:35;13.10;;;7.07;;
16101;SDS011;56411;52.964;10.540;2023-03-29T17:10:57;11.70;;;7.10;;
16101;SDS011;56411;52.964;10.540;2023-03-29T17:13:27;14.57;;;8.07;;
16101;SDS011;56411;52.964;10.540;2023-03-29T17:15:55;14.07;;;7.83;;
16101;SDS011;56411;52.964;10.540;2023-03-29T17:18:24;14.63;;;8.23;;
16101;SDS011;56411;52.964;10.540;2023-03-29T17:20:54;14.47;;;10.03;;
16101;SDS011;56411;52.964;10.540;2023-03-29T17:23:23;20.00;;;13.30;;
16101;SDS011;56411;52.964;10.540;2023-03-29T17:25:52;19.37;;;12.87;;
16101;SDS011;56411;52.964;10.540;2023-03-29T17:28:21;14.03;;;9.73;;
16101;SDS011;56411;52.964;10.540;2023-03-29T17:30:49;13.80;;;10.77;;
16101;SDS011;56411;52.964;10.540;2023-03-29T17:33:16;13.83;;;9.30;;
16101;SDS011;56411;52.964;10.540;2023-03-29T17:35:45;13.60;;;9.37;;
16101;SDS011;56411;52.964;10.540;2023-03-29T17:38:13;14.57;;;9.27;;
16101;SDS011;56411;52.964;10.540;2023-03-29T17:40:40;14.43;;;9.77;;
16101;SDS011;56411;52.964;10.540;2023-03-29T17:43:07;14.07;;;9.80;;
16101;SDS011;56411;52.964;10.540;2023-03-29T17:45:36;13.37;;;8.90;;
16101;SDS011;56411;52.964;10.540;2023-03-29T17:48:04;13.37;;;8.97;;
16101;SDS011;56411;52.964;10.540;2023-03-29T17:50:31;14.93;;;9.50;;
16101;SDS011;56411;52.964;10.540;2023-03-29T17:53:07;14.53;;;8.70;;
16101;SDS011;56411;52.964;10.540;2023-03-29T17:55:34;13.53;;;9.27;;
16101;SDS011;56411;52.964;10.540;2023-03-29T17:58:05;14.90;;;9.27;;
16101;SDS011;56411;52.964;10.540;2023-03-29T18:00:50;15.27;;;9.63;;
16101;SDS011;56411;52.964;10.540;2023-03-29T18:03:17;13.47;;;8.83;;
16101;SDS011;56411;52.964;10.540;2023-03-29T18:05:45;15.00;;;9.83;;
16101;SDS011;56411;52.964;10.540;2023-03-29T18:08:12;14.17;;;9.53;;
16101;SDS011;56411;52.964;10.540;2023-03-29T18:10:39;20.10;;;12.73;;
16101;SDS011;56411;52.964;10.540;2023-03-29T18:13:07;14.17;;;9.20;;
16101;SDS011;56411;52.964;10.540;2023-03-29T18:15:37;14.30;;;9.00;;
16101;SDS011;56411;52.964;10.540;2023-03-29T18:18:07;14.57;;;9.30;;
16101;SDS011;56411;52.964;10.540;2023-03-29T18:20:35;15.10;;;10.23;;
16101;SDS011;56411;52.964;10.540;2023-03-29T18:23:02;15.17;;;9.20;;
16101;SDS011;56411;52.964;10.540;2023-03-29T18:25:30;13.30;;;8.97;;
16101;SDS011;56411;52.964;10.540;2023-03-29T18:27:59;13.67;;;8.60;;
16101;SDS011;56411;52.964;10.540;2023-03-29T18:30:26;14.23;;;8.77;;
16101;SDS011;56411;52.964;10.540;2023-03-29T18:32:54;14.53;;;9.57;;
16101;SDS011;56411;52.964;10.540;2023-03-29T18:35:22;14.30;;;9.20;;
16101;SDS011;56411;52.964;10.540;2023-03-29T18:37:52;14.03;;;8.97;;
16101;SDS011;56411;52.964;10.540;2023-03-29T18:40:22;14.40;;;9.30;;
16101;SDS011;56411;52.964;10.540;2023-03-29T18:42:53;13.63;;;8.33;;
16101;SDS011;56411;52.964;10.540;2023-03-29T18:45:20;14.67;;;10.13;;
16101;SDS011;56411;52.964;10.540;2023-03-29T18:47:47;15.17;;;10.57;;
16101;SDS011;56411;52.964;10.540;2023-03-29T18:50:17;16.23;;;9.57;;
16101;SDS011;56411;52.964;10.540;2023-03-29T18:52:47;14.77;;;10.00;;
16101;SDS011;56411;52.964;10.540;2023-03-29T18:55:49;14.93;;;9.70;;
16101;SDS011;56411;52.964;10.540;2023-03-29T18:58:35;14.93;;;10.30;;
16101;SDS011;56411;52.964;10.540;2023-03-29T19:01:28;15.30;;;9.90;;
16101;SDS011;56411;52.964;10.540;2023-03-29T19:04:24;16.20;;;10.03;;
16101;SDS011;56411;52.964;10.540;2023-03-29T19:06:54;15.67;;;10.03;;
16101;SDS011;56411;52.964;10.540;2023-03-29T19:09:23;15.83;;;10.40;;
16101;SDS011;56411;52.964;10.540;2023-03-29T19:11:53;15.37;;;10.57;;
16101;SDS011;56411;52.964;10.540;2023-03-29T19:14:24;15.40;;;10.77;;
16101;SDS011;56411;52.964;10.540;2023-03-29T19:16:53;15.40;;;9.97;;
16101;SDS011;56411;52.964;10.540;2023-03-29T19:19:24;16.67;;;10.20;;
16101;SDS011;56411;52.964;10.540;2023-03-29T19:22:06;15.53;;;10.47;;
16101;SDS011;56411;52.964;10.540;2023-03-29T19:24:55;17.23;;;10.57;;
16101;SDS011;56411;52.964;10.540;2023-03-29T19:27:31;16.17;;;10.70;;
16101;SDS011;56411;52.964;10.540;2023-03-29T19:30:06;15.03;;;9.70;;
16101;SDS011;56411;52.964;10.540;2023-03-29T19:32:48;17.27;;;9.73;;
16101;SDS011;56411;52.964;10.540;2023-03-29T19:35:18;13.90;;;8.80;;
16101;SDS011;56411;52.964;10.540;2023-03-29T19:37:50;14.40;;;9.00;;
16101;SDS011;56411;52.964;10.540;2023-03-29T19:40:20;17.70;;;10.73;;
16101;SDS011;56411;52.964;10.540;2023-03-29T19:42:53;15.43;;;10.10;;
16101;SDS011;56411;52.964;10.540;2023-03-29T19:45:41;19.30;;;11.70;;
16101;SDS011;56411;52.964;10.540;2023-03-29T19:48:22;18.97;;;11.37;;
16101;SDS011;56411;52.964;10.540;2023-03-29T19:50:53;26.93;;;14.90;;
16101;SDS011;56411;52.964;10.540;2023-03-29T19:53:31;38.97;;;19.17;;
16101;SDS011;56411;52.964;10.540;2023-03-29T19:56:12;31.70;;;16.33;;
16101;SDS011;56411;52.964;10.540;2023-03-29T19:58:41;30.87;;;15.53;;
16101;SDS011;56411;52.964;10.540;2023-03-29T20:01:11;24.57;;;13.47;;
16101;SDS011;56411;52.964;10.540;2023-03-29T20:03:44;25.97;;;14.43;;
16101;SDS011;56411;52.964;10.540;2023-03-29T20:06:37;29.10;;;14.43;;
16101;SDS011;56411;52.964;10.540;2023-03-29T20:09:05;35.40;;;16.70;;
16101;SDS011;56411;52.964;10.540;2023-03-29T20:11:35;34.00;;;17.67;;
16101;SDS011;56411;52.964;10.540;2023-03-29T20:14:04;28.70;;;15.30;;
16101;SDS011;56411;52.964;10.540;2023-03-29T20:16:33;34.10;;;17.00;;
16101;SDS011;56411;52.964;10.540;2023-03-29T20:19:00;32.67;;;16.43;;
16101;SDS011;56411;52.964;10.540;2023-03-29T20:21:29;33.17;;;17.33;;
16101;SDS011;56411;52.964;10.540;2023-03-29T20:24:03;27.73;;;14.60;;
16101;SDS011;56411;52.964;10.540;2023-03-29T20:26:32;24.60;;;13.07;;
16101;SDS011;56411;52.964;10.540;2023-03-29T20:29:02;23.43;;;14.17;;
16101;SDS011;56411;52.964;10.540;2023-03-29T20:31:32;18.10;;;12.90;;
16101;SDS011;56411;52.964;10.540;2023-03-29T20:34:06;18.63;;;12.00;;
16101;SDS011;56411;52.964;10.540;2023-03-29T20:36:36;23.20;;;18.40;;
16101;SDS011;56411;52.964;10.540;2023-03-29T20:39:06;19.30;;;14.33;;
16101;SDS011;56411;52.964;10.540;2023-03-29T20:41:39;17.63;;;13.10;;
16101;SDS011;56411;52.964;10.540;2023-03-29T20:44:11;17.53;;;12.97;;
16101;SDS011;56411;52.964;10.540;2023-03-29T20:46:41;17.20;;;12.17;;
16101;SDS011;56411;52.964;10.540;2023-03-29T20:49:26;16.60;;;11.57;;
16101;SDS011;56411;52.964;10.540;2023-03-29T20:51:54;16.57;;;11.77;;
16101;SDS011;56411;52.964;10.540;2023-03-29T20:54:24;19.00;;;12.47;;
16101;SDS011;56411;52.964;10.540;2023-03-29T20:56:52;19.53;;;12.27;;
16101;SDS011;56411;52.964;10.540;2023-03-29T20:59:20;20.63;;;13.73;;
16101;SDS011;56411;52.964;10.540;2023-03-29T21:01:48;20.60;;;13.40;;
16101;SDS011;56411;52.964;10.540;2023-03-29T21:04:19;19.27;;;12.97;;
16101;SDS011;56411;52.964;10.540;2023-03-29T21:06:49;20.13;;;13.30;;
16101;SDS011;56411;52.964;10.540;2023-03-29T21:09:17;19.17;;;12.67;;
16101;SDS011;56411;52.964;10.540;2023-03-29T21:11:49;17.87;;;11.87;;
16101;SDS011;56411;52.964;10.540;2023-03-29T21:14:20;18.30;;;11.83;;
16101;SDS011;56411;52.964;10.540;2023-03-29T21:16:50;17.97;;;12.00;;
16101;SDS011;56411;52.964;10.540;2023-03-29T21:19:21;20.83;;;13.17;;
16101;SDS011;56411;52.964;10.540;2023-03-29T21:21:49;18.53;;;11.77;;
16101;SDS011;56411;52.964;10.540;2023-03-29T21:24:21;17.77;;;12.43;;
16101;SDS011;56411;52.964;10.540;2023-03-29T21:27:09;16.10;;;10.57;;
16101;SDS011;56411;52.964;10.540;2023-03-29T21:30:11;17.97;;;11.17;;
16101;SDS011;56411;52.964;10.540;2023-03-29T21:33:05;18.47;;;11.90;;
16101;SDS011;56411;52.964;10.540;2023-03-29T21:35:43;17.20;;;11.17;;
16101;SDS011;56411;52.964;10.540;2023-03-29T21:38:21;19.47;;;12.63;;
16101;SDS011;56411;52.964;10.540;2023-03-29T21:40:53;18.00;;;12.10;;
16101;SDS011;56411;52.964;10.540;2023-03-29T21:43:41;19.60;;;12.80;;